DBDHM EDXW-EDNY
Flight info
| Callsign | DBDHM |
|---|---|
| Flight time | 1h 22m |
| Altitude | 23000 |
| Route | OLDIP1B OLDIP DCT PIZID/N0473F410 DCT EKERN M852 HAM DCT ZUCKA DCT BAMKI/N0473F430 DCT IBAGA DCT DKB N869 TEDGO N851 LOKTA T122 ARFAS DCT |
| Aircraft | C700/M-SBDGHM1RWXY/LB2 |
Departure
| Time | 2026-05-06 13:56 |
|---|---|
| Airport | Westerland Sylt Airport (EDXW) |
Arrival
| Time | 2026-05-06 15:19 |
|---|---|
| Airport | Bodensee Airport Friedrichshafen (EDNY) |
| Time | Latitude | Longitude | Altitude | Speed | Heading |
|---|---|---|---|---|---|
| 2026-05-06 13:38 | 54.91247 | 8.32530 | 27 ft | 0 kts | 60° |
| 2026-05-06 13:50 | 54.91249 | 8.32534 | 27 ft | 0 kts | 59° |
| 2026-05-06 13:50 | 54.91249 | 8.32535 | 27 ft | 1 kts | 59° |
| 2026-05-06 13:51 | 54.91237 | 8.32587 | 28 ft | 8 kts | 151° |
| 2026-05-06 13:51 | 54.91180 | 8.32613 | 30 ft | 8 kts | 157° |
| 2026-05-06 13:51 | 54.91131 | 8.32666 | 33 ft | 8 kts | 149° |
| 2026-05-06 13:51 | 54.91088 | 8.32743 | 35 ft | 10 kts | 114° |
| 2026-05-06 13:52 | 54.91063 | 8.32861 | 36 ft | 12 kts | 111° |
| 2026-05-06 13:52 | 54.91008 | 8.33011 | 34 ft | 17 kts | 135° |
| 2026-05-06 13:52 | 54.90905 | 8.33154 | 33 ft | 22 kts | 155° |
| 2026-05-06 13:52 | 54.90748 | 8.33224 | 31 ft | 25 kts | 175° |
| 2026-05-06 13:53 | 54.90573 | 8.33248 | 26 ft | 22 kts | 175° |
| 2026-05-06 13:53 | 54.90422 | 8.33336 | 25 ft | 24 kts | 148° |
| 2026-05-06 13:53 | 54.90303 | 8.33550 | 24 ft | 25 kts | 118° |
| 2026-05-06 13:53 | 54.90251 | 8.33841 | 23 ft | 25 kts | 98° |
| 2026-05-06 13:54 | 54.90235 | 8.34143 | 24 ft | 25 kts | 88° |
| 2026-05-06 13:54 | 54.90266 | 8.34433 | 26 ft | 24 kts | 79° |
| 2026-05-06 13:54 | 54.90295 | 8.34713 | 30 ft | 23 kts | 80° |
| 2026-05-06 13:54 | 54.90323 | 8.34987 | 34 ft | 23 kts | 79° |
| 2026-05-06 13:55 | 54.90337 | 8.35066 | 35 ft | 1 kts | 57° |
| 2026-05-06 13:55 | 54.90381 | 8.35170 | 36 ft | 19 kts | 48° |
| 2026-05-06 13:55 | 54.90428 | 8.35157 | 37 ft | 0 kts | 325° |
| 2026-05-06 13:55 | 54.90435 | 8.35149 | 37 ft | 13 kts | 325° |
| 2026-05-06 13:56 | 54.90795 | 8.34699 | 38 ft | 112 kts | 327° |
| 2026-05-06 13:56 | 54.91616 | 8.33692 | 526 ft | 171 kts | 327° |
| 2026-05-06 13:56 | 54.92612 | 8.32458 | 1930 ft | 184 kts | 327° |
| 2026-05-06 13:56 | 54.93700 | 8.31108 | 3312 ft | 201 kts | 328° |
| 2026-05-06 13:57 | 54.94943 | 8.29577 | 4002 ft | 236 kts | 328° |
| 2026-05-06 13:57 | 54.96223 | 8.27825 | 3989 ft | 235 kts | 316° |
| 2026-05-06 13:57 | 54.97073 | 8.25470 | 4532 ft | 228 kts | 295° |
| 2026-05-06 13:57 | 54.97433 | 8.22876 | 6341 ft | 220 kts | 277° |
| 2026-05-06 13:58 | 54.97289 | 8.20181 | 7863 ft | 227 kts | 255° |
| 2026-05-06 13:58 | 54.96626 | 8.17717 | 9680 ft | 223 kts | 236° |
| 2026-05-06 13:58 | 54.95541 | 8.15776 | 11312 ft | 227 kts | 217° |
| 2026-05-06 13:58 | 54.94106 | 8.14564 | 12893 ft | 233 kts | 199° |
| 2026-05-06 13:59 | 54.92478 | 8.14252 | 14238 ft | 252 kts | 181° |
| 2026-05-06 13:59 | 54.90676 | 8.15156 | 15125 ft | 288 kts | 157° |
| 2026-05-06 13:59 | 54.88969 | 8.17315 | 16123 ft | 316 kts | 144° |
| 2026-05-06 13:59 | 54.87285 | 8.19816 | 17684 ft | 319 kts | 142° |
| 2026-05-06 14:00 | 54.85567 | 8.22323 | 18954 ft | 326 kts | 143° |
| 2026-05-06 14:00 | 54.83804 | 8.24790 | 20044 ft | 332 kts | 144° |
| 2026-05-06 14:00 | 54.81928 | 8.27268 | 21093 ft | 336 kts | 151° |
| 2026-05-06 14:00 | 54.79960 | 8.29391 | 22157 ft | 340 kts | 152° |
| 2026-05-06 14:01 | 54.77932 | 8.31599 | 23213 ft | 346 kts | 152° |
| 2026-05-06 14:01 | 54.75882 | 8.33856 | 24140 ft | 351 kts | 152° |
| 2026-05-06 14:01 | 54.73792 | 8.36140 | 24882 ft | 362 kts | 152° |
| 2026-05-06 14:01 | 54.71625 | 8.38554 | 24895 ft | 373 kts | 148° |
| 2026-05-06 14:02 | 54.69695 | 8.41502 | 24896 ft | 367 kts | 138° |
| 2026-05-06 14:02 | 54.68126 | 8.44861 | 24890 ft | 362 kts | 128° |
| 2026-05-06 14:02 | 54.66888 | 8.48654 | 24886 ft | 364 kts | 118° |
| 2026-05-06 14:02 | 54.65923 | 8.52733 | 24895 ft | 369 kts | 116° |
| 2026-05-06 14:03 | 54.64949 | 8.56868 | 24902 ft | 372 kts | 116° |
| 2026-05-06 14:03 | 54.63959 | 8.61030 | 24906 ft | 373 kts | 116° |
| 2026-05-06 14:03 | 54.62980 | 8.65169 | 24886 ft | 372 kts | 116° |
| 2026-05-06 14:03 | 54.62037 | 8.69256 | 24904 ft | 374 kts | 112° |
| 2026-05-06 14:04 | 54.61430 | 8.73713 | 25328 ft | 391 kts | 103° |
| 2026-05-06 14:04 | 54.60988 | 8.78460 | 25819 ft | 403 kts | 101° |
| 2026-05-06 14:04 | 54.60567 | 8.83273 | 26702 ft | 405 kts | 102° |
| 2026-05-06 14:04 | 54.60130 | 8.88046 | 27437 ft | 409 kts | 102° |
| 2026-05-06 14:05 | 54.59663 | 8.92935 | 28187 ft | 413 kts | 102° |
| 2026-05-06 14:05 | 54.59204 | 8.97815 | 28939 ft | 416 kts | 102° |
| 2026-05-06 14:05 | 54.58742 | 9.02787 | 29719 ft | 420 kts | 102° |
| 2026-05-06 14:05 | 54.58272 | 9.07797 | 30422 ft | 424 kts | 103° |
| 2026-05-06 14:06 | 54.57796 | 9.12789 | 31007 ft | 428 kts | 103° |
| 2026-05-06 14:06 | 54.57307 | 9.17908 | 31540 ft | 433 kts | 103° |
| 2026-05-06 14:06 | 54.56817 | 9.23047 | 32111 ft | 435 kts | 103° |
| 2026-05-06 14:06 | 54.56322 | 9.28214 | 32598 ft | 440 kts | 103° |
| 2026-05-06 14:07 | 54.55816 | 9.33440 | 33103 ft | 443 kts | 103° |
| 2026-05-06 14:07 | 54.55310 | 9.38673 | 33861 ft | 442 kts | 103° |
| 2026-05-06 14:07 | 54.54797 | 9.43909 | 33904 ft | 456 kts | 103° |
| 2026-05-06 14:07 | 54.54257 | 9.49394 | 33910 ft | 470 kts | 103° |
| 2026-05-06 14:08 | 54.53148 | 9.60703 | 33922 ft | 480 kts | 103° |
| 2026-05-06 14:08 | 54.51788 | 9.71766 | 33900 ft | 468 kts | 113° |
| 2026-05-06 14:09 | 54.50428 | 9.76793 | 33966 ft | 457 kts | 124° |
| 2026-05-06 14:09 | 54.48648 | 9.81119 | 35225 ft | 428 kts | 133° |
| 2026-05-06 14:09 | 54.46601 | 9.84766 | 35919 ft | 424 kts | 143° |
| 2026-05-06 14:09 | 54.44202 | 9.87711 | 36312 ft | 423 kts | 153° |
| 2026-05-06 14:10 | 54.41576 | 9.89933 | 36824 ft | 420 kts | 162° |
| 2026-05-06 14:10 | 54.38787 | 9.91392 | 37300 ft | 419 kts | 169° |
| 2026-05-06 14:10 | 54.35949 | 9.92559 | 37786 ft | 420 kts | 170° |
| 2026-05-06 14:10 | 54.33108 | 9.93751 | 38247 ft | 422 kts | 169° |
| 2026-05-06 14:11 | 54.30252 | 9.94964 | 38689 ft | 423 kts | 170° |
| 2026-05-06 14:11 | 54.27386 | 9.96169 | 39065 ft | 424 kts | 170° |
| 2026-05-06 14:11 | 54.24520 | 9.97364 | 39456 ft | 424 kts | 170° |
| 2026-05-06 14:11 | 54.21656 | 9.98560 | 39813 ft | 424 kts | 170° |
| 2026-05-06 14:12 | 54.18785 | 9.99761 | 40170 ft | 425 kts | 170° |
| 2026-05-06 14:12 | 54.15913 | 10.00960 | 40518 ft | 425 kts | 170° |
| 2026-05-06 14:12 | 54.13071 | 10.02143 | 40839 ft | 425 kts | 170° |
| 2026-05-06 14:12 | 54.10184 | 10.03343 | 41179 ft | 426 kts | 170° |
| 2026-05-06 14:13 | 54.07310 | 10.04539 | 41507 ft | 426 kts | 169° |
| 2026-05-06 14:13 | 54.04427 | 10.05738 | 41844 ft | 426 kts | 169° |
| 2026-05-06 14:13 | 54.01547 | 10.06934 | 42169 ft | 426 kts | 169° |
| 2026-05-06 14:13 | 53.98666 | 10.08126 | 42484 ft | 426 kts | 169° |
| 2026-05-06 14:14 | 53.95783 | 10.09318 | 42801 ft | 426 kts | 169° |
| 2026-05-06 14:14 | 53.92896 | 10.10512 | 43120 ft | 427 kts | 169° |
| 2026-05-06 14:14 | 53.90011 | 10.11702 | 43408 ft | 427 kts | 169° |
| 2026-05-06 14:14 | 53.87128 | 10.12889 | 43705 ft | 427 kts | 169° |
| 2026-05-06 14:15 | 53.84240 | 10.14078 | 43990 ft | 427 kts | 169° |
| 2026-05-06 14:15 | 53.81386 | 10.15249 | 44238 ft | 427 kts | 169° |
| 2026-05-06 14:15 | 53.78497 | 10.16435 | 44553 ft | 426 kts | 169° |
| 2026-05-06 14:15 | 53.75620 | 10.17614 | 44808 ft | 426 kts | 169° |
| 2026-05-06 14:16 | 53.69804 | 10.19988 | 44875 ft | 435 kts | 169° |
| 2026-05-06 14:16 | 53.63811 | 10.22194 | 44887 ft | 444 kts | 171° |
| 2026-05-06 14:17 | 53.57698 | 10.24408 | 44887 ft | 454 kts | 171° |
| 2026-05-06 14:17 | 53.51494 | 10.26620 | 44872 ft | 462 kts | 171° |
| 2026-05-06 14:18 | 53.45179 | 10.28880 | 44871 ft | 464 kts | 171° |
| 2026-05-06 14:18 | 53.38850 | 10.31130 | 44847 ft | 460 kts | 171° |
| 2026-05-06 14:19 | 53.32642 | 10.33333 | 44839 ft | 455 kts | 171° |
| 2026-05-06 14:19 | 53.26458 | 10.35520 | 44837 ft | 453 kts | 171° |
| 2026-05-06 14:20 | 53.20259 | 10.37705 | 44837 ft | 456 kts | 171° |
| 2026-05-06 14:20 | 53.14047 | 10.39890 | 44844 ft | 460 kts | 171° |
| 2026-05-06 14:21 | 53.07761 | 10.42094 | 44839 ft | 461 kts | 171° |
| 2026-05-06 14:21 | 53.01493 | 10.44286 | 44835 ft | 458 kts | 171° |
| 2026-05-06 14:22 | 52.95310 | 10.46440 | 44826 ft | 455 kts | 171° |
| 2026-05-06 14:22 | 52.89118 | 10.48592 | 44822 ft | 454 kts | 171° |
| 2026-05-06 14:23 | 52.82919 | 10.50739 | 44816 ft | 456 kts | 171° |
| 2026-05-06 14:23 | 52.76694 | 10.52890 | 44807 ft | 458 kts | 171° |
| 2026-05-06 14:24 | 52.70438 | 10.55044 | 44814 ft | 460 kts | 171° |
| 2026-05-06 14:24 | 52.64165 | 10.57199 | 44796 ft | 460 kts | 171° |
| 2026-05-06 14:25 | 52.57913 | 10.59340 | 44804 ft | 458 kts | 171° |
| 2026-05-06 14:25 | 52.51729 | 10.61452 | 44814 ft | 455 kts | 171° |
| 2026-05-06 14:26 | 52.45529 | 10.63562 | 44816 ft | 455 kts | 171° |
| 2026-05-06 14:26 | 52.39323 | 10.65669 | 44824 ft | 456 kts | 171° |
| 2026-05-06 14:27 | 52.33100 | 10.67776 | 44825 ft | 457 kts | 171° |
| 2026-05-06 14:27 | 52.26859 | 10.69882 | 44819 ft | 458 kts | 171° |
| 2026-05-06 14:28 | 52.20649 | 10.71973 | 44813 ft | 458 kts | 171° |
| 2026-05-06 14:28 | 52.14373 | 10.74079 | 44803 ft | 459 kts | 171° |
| 2026-05-06 14:29 | 52.08104 | 10.76177 | 44793 ft | 460 kts | 171° |
| 2026-05-06 14:29 | 52.01869 | 10.78257 | 44772 ft | 460 kts | 171° |
| 2026-05-06 14:30 | 51.95597 | 10.80344 | 44758 ft | 460 kts | 171° |
| 2026-05-06 14:30 | 51.89334 | 10.82422 | 44771 ft | 458 kts | 171° |
| 2026-05-06 14:31 | 51.83094 | 10.84487 | 44767 ft | 457 kts | 171° |
| 2026-05-06 14:31 | 51.76855 | 10.86546 | 44766 ft | 457 kts | 171° |
| 2026-05-06 14:32 | 51.70623 | 10.88595 | 44769 ft | 456 kts | 171° |
| 2026-05-06 14:32 | 51.64384 | 10.90055 | 44770 ft | 453 kts | 178° |
| 2026-05-06 14:33 | 51.58084 | 10.90889 | 44777 ft | 455 kts | 178° |
| 2026-05-06 14:33 | 51.52835 | 10.91583 | 44773 ft | 456 kts | 178° |
| 2026-05-06 14:34 | 51.45455 | 10.92542 | 44768 ft | 458 kts | 178° |
| 2026-05-06 14:34 | 51.40122 | 10.93243 | 44770 ft | 460 kts | 178° |
| 2026-05-06 14:35 | 51.33740 | 10.94071 | 44770 ft | 461 kts | 178° |
| 2026-05-06 14:35 | 51.27360 | 10.94902 | 44761 ft | 459 kts | 178° |
| 2026-05-06 14:36 | 51.21043 | 10.95718 | 44753 ft | 457 kts | 178° |
| 2026-05-06 14:36 | 51.14724 | 10.96536 | 44746 ft | 455 kts | 178° |
| 2026-05-06 14:37 | 51.08403 | 10.97350 | 44744 ft | 454 kts | 178° |
| 2026-05-06 14:37 | 51.02087 | 10.98161 | 44743 ft | 456 kts | 178° |
| 2026-05-06 14:38 | 50.95744 | 10.98973 | 44747 ft | 458 kts | 178° |
| 2026-05-06 14:38 | 50.89372 | 10.99788 | 44751 ft | 461 kts | 178° |
| 2026-05-06 14:39 | 50.82969 | 11.00604 | 44758 ft | 461 kts | 178° |
| 2026-05-06 14:39 | 50.76573 | 11.01417 | 44750 ft | 460 kts | 178° |
| 2026-05-06 14:40 | 50.70280 | 11.01029 | 44750 ft | 453 kts | 192° |
| 2026-05-06 14:40 | 50.64291 | 10.98038 | 44773 ft | 449 kts | 201° |
| 2026-05-06 14:41 | 50.58361 | 10.95033 | 44772 ft | 449 kts | 198° |
| 2026-05-06 14:41 | 50.52391 | 10.91998 | 44774 ft | 450 kts | 200° |
| 2026-05-06 14:42 | 50.46406 | 10.88945 | 44774 ft | 453 kts | 199° |
| 2026-05-06 14:42 | 50.40416 | 10.85924 | 44777 ft | 454 kts | 199° |
| 2026-05-06 14:43 | 50.34397 | 10.82873 | 44776 ft | 455 kts | 199° |
| 2026-05-06 14:43 | 50.28379 | 10.79847 | 44775 ft | 452 kts | 199° |
| 2026-05-06 14:44 | 50.22418 | 10.76847 | 44766 ft | 449 kts | 199° |
| 2026-05-06 14:45 | 50.13515 | 10.72390 | 44766 ft | 448 kts | 199° |
| 2026-05-06 14:45 | 50.07529 | 10.69400 | 44768 ft | 452 kts | 199° |
| 2026-05-06 14:46 | 50.01551 | 10.66424 | 44769 ft | 455 kts | 199° |
| 2026-05-06 14:46 | 49.95502 | 10.63420 | 44772 ft | 455 kts | 199° |
| 2026-05-06 14:47 | 49.89515 | 10.60454 | 44765 ft | 453 kts | 199° |
| 2026-05-06 14:47 | 49.83515 | 10.57490 | 44763 ft | 451 kts | 199° |
| 2026-05-06 14:48 | 49.77536 | 10.54544 | 44764 ft | 449 kts | 199° |
| 2026-05-06 14:48 | 49.71567 | 10.51609 | 44753 ft | 450 kts | 199° |
| 2026-05-06 14:49 | 49.65575 | 10.48672 | 44769 ft | 453 kts | 200° |
| 2026-05-06 14:49 | 49.59539 | 10.45721 | 44777 ft | 456 kts | 200° |
| 2026-05-06 14:50 | 49.53475 | 10.42764 | 44787 ft | 458 kts | 200° |
| 2026-05-06 14:50 | 49.47452 | 10.39835 | 44778 ft | 455 kts | 200° |
| 2026-05-06 14:51 | 49.41440 | 10.36918 | 44772 ft | 451 kts | 200° |
| 2026-05-06 14:51 | 49.35464 | 10.34025 | 44772 ft | 450 kts | 200° |
| 2026-05-06 14:52 | 49.29471 | 10.31133 | 44797 ft | 453 kts | 200° |
| 2026-05-06 14:52 | 49.26441 | 10.29671 | 44357 ft | 460 kts | 200° |
| 2026-05-06 14:52 | 49.23384 | 10.28200 | 43740 ft | 460 kts | 199° |
| 2026-05-06 14:52 | 49.20349 | 10.26727 | 43134 ft | 453 kts | 201° |
| 2026-05-06 14:53 | 49.17481 | 10.24846 | 42547 ft | 442 kts | 208° |
| 2026-05-06 14:53 | 49.14873 | 10.22482 | 41973 ft | 430 kts | 215° |
| 2026-05-06 14:53 | 49.12539 | 10.19706 | 41431 ft | 421 kts | 221° |
| 2026-05-06 14:53 | 49.10509 | 10.16613 | 40886 ft | 414 kts | 228° |
| 2026-05-06 14:54 | 49.08693 | 10.13221 | 40349 ft | 411 kts | 230° |
| 2026-05-06 14:54 | 49.06893 | 10.09806 | 39804 ft | 412 kts | 230° |
| 2026-05-06 14:54 | 49.05093 | 10.06426 | 39264 ft | 417 kts | 229° |
| 2026-05-06 14:54 | 49.03247 | 10.02949 | 38707 ft | 425 kts | 229° |
| 2026-05-06 14:55 | 49.01373 | 9.99402 | 38078 ft | 430 kts | 229° |
| 2026-05-06 14:55 | 48.99501 | 9.95869 | 37505 ft | 427 kts | 229° |
| 2026-05-06 14:55 | 48.97643 | 9.92377 | 36941 ft | 423 kts | 229° |
| 2026-05-06 14:55 | 48.95799 | 9.88916 | 36384 ft | 417 kts | 229° |
| 2026-05-06 14:56 | 48.93995 | 9.85531 | 35841 ft | 412 kts | 229° |
| 2026-05-06 14:56 | 48.92196 | 9.82159 | 35298 ft | 407 kts | 229° |
| 2026-05-06 14:56 | 48.90414 | 9.78824 | 34759 ft | 403 kts | 229° |
| 2026-05-06 14:56 | 48.88666 | 9.75558 | 34223 ft | 401 kts | 229° |
| 2026-05-06 14:57 | 48.86896 | 9.72254 | 33672 ft | 401 kts | 229° |
| 2026-05-06 14:57 | 48.85147 | 9.68995 | 33133 ft | 401 kts | 229° |
| 2026-05-06 14:57 | 48.83365 | 9.65679 | 32597 ft | 406 kts | 229° |
| 2026-05-06 14:57 | 48.81579 | 9.62359 | 32067 ft | 414 kts | 228° |
| 2026-05-06 14:58 | 48.79739 | 9.58943 | 31513 ft | 420 kts | 228° |
| 2026-05-06 14:58 | 48.77880 | 9.55493 | 30955 ft | 423 kts | 228° |
| 2026-05-06 14:58 | 48.75998 | 9.52006 | 30395 ft | 425 kts | 228° |
| 2026-05-06 14:58 | 48.74137 | 9.48564 | 29831 ft | 426 kts | 228° |
| 2026-05-06 14:59 | 48.72253 | 9.45082 | 29238 ft | 423 kts | 228° |
| 2026-05-06 14:59 | 48.70388 | 9.41639 | 28687 ft | 419 kts | 228° |
| 2026-05-06 14:59 | 48.68561 | 9.38272 | 28130 ft | 416 kts | 228° |
| 2026-05-06 14:59 | 48.66709 | 9.34912 | 27593 ft | 412 kts | 226° |
| 2026-05-06 15:00 | 48.64660 | 9.31923 | 27051 ft | 407 kts | 219° |
| 2026-05-06 15:00 | 48.62412 | 9.29409 | 26522 ft | 403 kts | 212° |
| 2026-05-06 15:00 | 48.59987 | 9.27368 | 25995 ft | 400 kts | 205° |
| 2026-05-06 15:00 | 48.57407 | 9.25813 | 25471 ft | 399 kts | 198° |
| 2026-05-06 15:01 | 48.54708 | 9.24767 | 24942 ft | 398 kts | 191° |
| 2026-05-06 15:01 | 48.51989 | 9.24219 | 24425 ft | 398 kts | 187° |
| 2026-05-06 15:01 | 48.49229 | 9.23760 | 23906 ft | 397 kts | 187° |
| 2026-05-06 15:01 | 48.46501 | 9.23282 | 23380 ft | 396 kts | 187° |
| 2026-05-06 15:02 | 48.43766 | 9.22805 | 22821 ft | 393 kts | 187° |
| 2026-05-06 15:02 | 48.41065 | 9.22348 | 22326 ft | 389 kts | 186° |
| 2026-05-06 15:02 | 48.38384 | 9.21906 | 21835 ft | 387 kts | 186° |
| 2026-05-06 15:02 | 48.35703 | 9.21460 | 21342 ft | 385 kts | 187° |
| 2026-05-06 15:03 | 48.33045 | 9.21010 | 20854 ft | 382 kts | 187° |
| 2026-05-06 15:03 | 48.30441 | 9.20572 | 20378 ft | 380 kts | 187° |
| 2026-05-06 15:03 | 48.27814 | 9.20135 | 19897 ft | 378 kts | 186° |
| 2026-05-06 15:03 | 48.25190 | 9.19698 | 19436 ft | 378 kts | 186° |
| 2026-05-06 15:04 | 48.22591 | 9.19265 | 18942 ft | 380 kts | 186° |
| 2026-05-06 15:04 | 48.19960 | 9.18826 | 18449 ft | 377 kts | 186° |
| 2026-05-06 15:04 | 48.17361 | 9.18432 | 17964 ft | 374 kts | 184° |
| 2026-05-06 15:04 | 48.14765 | 9.18590 | 17475 ft | 371 kts | 174° |
| 2026-05-06 15:05 | 48.12246 | 9.19038 | 17024 ft | 368 kts | 174° |
| 2026-05-06 15:05 | 48.09734 | 9.19466 | 16579 ft | 355 kts | 174° |
| 2026-05-06 15:05 | 48.07337 | 9.19866 | 16186 ft | 332 kts | 174° |
| 2026-05-06 15:05 | 48.05133 | 9.20240 | 15844 ft | 312 kts | 174° |
| 2026-05-06 15:06 | 48.03027 | 9.20601 | 15525 ft | 295 kts | 174° |
| 2026-05-06 15:06 | 48.01035 | 9.20939 | 15203 ft | 281 kts | 175° |
| 2026-05-06 15:06 | 47.99123 | 9.21261 | 14879 ft | 272 kts | 175° |
| 2026-05-06 15:06 | 47.97269 | 9.21574 | 14568 ft | 265 kts | 175° |
| 2026-05-06 15:07 | 47.95442 | 9.21885 | 14252 ft | 264 kts | 175° |
| 2026-05-06 15:07 | 47.93604 | 9.22195 | 13911 ft | 267 kts | 175° |
| 2026-05-06 15:07 | 47.91772 | 9.22521 | 13550 ft | 269 kts | 173° |
| 2026-05-06 15:07 | 47.89971 | 9.23348 | 13172 ft | 272 kts | 159° |
| 2026-05-06 15:08 | 47.88338 | 9.24787 | 12811 ft | 274 kts | 146° |
| 2026-05-06 15:08 | 47.86965 | 9.26774 | 12451 ft | 277 kts | 132° |
| 2026-05-06 15:08 | 47.85933 | 9.29215 | 12087 ft | 282 kts | 119° |
| 2026-05-06 15:08 | 47.85317 | 9.31973 | 11719 ft | 287 kts | 104° |
| 2026-05-06 15:09 | 47.85164 | 9.34959 | 11329 ft | 290 kts | 91° |
| 2026-05-06 15:09 | 47.85255 | 9.37944 | 10948 ft | 287 kts | 90° |
| 2026-05-06 15:09 | 47.85334 | 9.40895 | 10572 ft | 283 kts | 91° |
| 2026-05-06 15:09 | 47.85401 | 9.43807 | 10205 ft | 280 kts | 91° |
| 2026-05-06 15:10 | 47.85469 | 9.46716 | 9837 ft | 281 kts | 91° |
| 2026-05-06 15:10 | 47.85540 | 9.49585 | 9450 ft | 280 kts | 90° |
| 2026-05-06 15:10 | 47.85613 | 9.52488 | 9060 ft | 277 kts | 90° |
| 2026-05-06 15:10 | 47.85680 | 9.55337 | 8701 ft | 275 kts | 91° |
| 2026-05-06 15:11 | 47.85745 | 9.58185 | 8341 ft | 276 kts | 90° |
| 2026-05-06 15:11 | 47.85812 | 9.61047 | 7975 ft | 275 kts | 90° |
| 2026-05-06 15:11 | 47.85879 | 9.63829 | 7616 ft | 263 kts | 90° |
| 2026-05-06 15:11 | 47.85939 | 9.66448 | 7283 ft | 251 kts | 90° |
| 2026-05-06 15:12 | 47.85954 | 9.69003 | 6970 ft | 241 kts | 97° |
| 2026-05-06 15:12 | 47.85545 | 9.71395 | 6735 ft | 236 kts | 115° |
| 2026-05-06 15:12 | 47.84721 | 9.73450 | 6470 ft | 234 kts | 134° |
| 2026-05-06 15:12 | 47.83528 | 9.75084 | 6139 ft | 233 kts | 152° |
| 2026-05-06 15:13 | 47.82104 | 9.76128 | 5809 ft | 223 kts | 168° |
| 2026-05-06 15:13 | 47.80627 | 9.76548 | 5534 ft | 209 kts | 184° |
| 2026-05-06 15:13 | 47.79215 | 9.76414 | 5282 ft | 197 kts | 198° |
| 2026-05-06 15:13 | 47.77928 | 9.75813 | 5038 ft | 192 kts | 210° |
| 2026-05-06 15:14 | 47.76812 | 9.74809 | 4848 ft | 187 kts | 224° |
| 2026-05-06 15:14 | 47.75898 | 9.73433 | 4724 ft | 187 kts | 234° |
| 2026-05-06 15:14 | 47.75196 | 9.71811 | 4602 ft | 187 kts | 245° |
| 2026-05-06 15:14 | 47.74755 | 9.70078 | 4536 ft | 174 kts | 256° |
| 2026-05-06 15:15 | 47.74422 | 9.68437 | 4025 ft | 158 kts | 240° |
| 2026-05-06 15:15 | 47.73648 | 9.67412 | 3756 ft | 141 kts | 226° |
| 2026-05-06 15:15 | 47.73071 | 9.66270 | 3627 ft | 132 kts | 239° |
| 2026-05-06 15:15 | 47.72575 | 9.65133 | 3451 ft | 132 kts | 242° |
| 2026-05-06 15:16 | 47.72111 | 9.63987 | 3257 ft | 129 kts | 242° |
| 2026-05-06 15:16 | 47.71665 | 9.62871 | 3085 ft | 122 kts | 243° |
| 2026-05-06 15:16 | 47.71252 | 9.61798 | 2916 ft | 117 kts | 244° |
| 2026-05-06 15:16 | 47.70848 | 9.60752 | 2760 ft | 116 kts | 242° |
| 2026-05-06 15:17 | 47.70445 | 9.59715 | 2594 ft | 113 kts | 244° |
| 2026-05-06 15:17 | 47.70061 | 9.58723 | 2449 ft | 113 kts | 243° |
| 2026-05-06 15:17 | 47.69659 | 9.57677 | 2280 ft | 118 kts | 242° |
| 2026-05-06 15:17 | 47.69249 | 9.56620 | 2120 ft | 117 kts | 242° |
| 2026-05-06 15:18 | 47.68848 | 9.55577 | 1961 ft | 117 kts | 241° |
| 2026-05-06 15:18 | 47.68427 | 9.54512 | 1767 ft | 121 kts | 243° |
| 2026-05-06 15:18 | 47.68020 | 9.53448 | 1589 ft | 118 kts | 244° |
| 2026-05-06 15:18 | 47.67619 | 9.52411 | 1444 ft | 112 kts | 243° |
| 2026-05-06 15:19 | 47.67247 | 9.51465 | 1365 ft | 95 kts | 243° |
| 2026-05-06 15:19 | 47.66998 | 9.50807 | 1349 ft | 33 kts | 240° |
| 2026-05-06 15:19 | 47.66838 | 9.50632 | 1347 ft | 18 kts | 210° |
| 2026-05-06 15:19 | 47.66777 | 9.50611 | 1345 ft | 9 kts | 156° |
| 2026-05-06 15:20 | 47.66775 | 9.50705 | 1346 ft | 13 kts | 59° |
| 2026-05-06 15:20 | 47.66831 | 9.50848 | 1345 ft | 18 kts | 60° |
| 2026-05-06 15:20 | 47.66868 | 9.50943 | 1346 ft | 7 kts | 60° |
| 2026-05-06 15:20 | 47.66885 | 9.50986 | 1348 ft | 8 kts | 60° |
| 2026-05-06 15:21 | 47.66931 | 9.51106 | 1348 ft | 12 kts | 60° |
| 2026-05-06 15:21 | 47.66978 | 9.51228 | 1354 ft | 15 kts | 60° |
| 2026-05-06 15:21 | 47.67013 | 9.51319 | 1353 ft | 16 kts | 60° |
| 2026-05-06 15:21 | 47.67074 | 9.51478 | 1355 ft | 19 kts | 60° |
| 2026-05-06 15:22 | 47.67145 | 9.51660 | 1358 ft | 22 kts | 60° |
| 2026-05-06 15:22 | 47.67227 | 9.51872 | 1360 ft | 18 kts | 60° |
| 2026-05-06 15:22 | 47.67284 | 9.52017 | 1361 ft | 13 kts | 60° |
| 2026-05-06 15:22 | 47.67336 | 9.52152 | 1361 ft | 17 kts | 60° |
| 2026-05-06 15:23 | 47.67377 | 9.52258 | 1361 ft | 9 kts | 60° |
| 2026-05-06 15:23 | 47.67370 | 9.52300 | 1362 ft | 0 kts | 142° |
| 2026-05-06 15:23 | 47.67365 | 9.52304 | 1362 ft | 0 kts | 149° |
| 2026-05-06 15:24 | 47.67344 | 9.52318 | 1363 ft | 4 kts | 171° |
| 2026-05-06 15:24 | 47.67334 | 9.52315 | 1363 ft | 0 kts | 192° |
| 2026-05-06 15:24 | 47.67329 | 9.52313 | 1363 ft | 0 kts | 193° |